Time;durP1;ratioP1;P1;durP2;ratioP2;P2;SDS_P1;SDS_P2;PMS_P1;PMS_P2;Temp;Humidity;BMP_temperature;BMP_pressure;BME280_temperature;BME280_humidity;BME280_pressure;Samples;Min_cycle;Max_cycle;Signal;HPM_P1;HPM_P2
2023/09/26 05:48:00;;;;;;;6.78;3.80;;;;;;;;;;10544572;28;20433;-85
2023/09/26 07:01:18;;;;;;;5.13;3.90;;;;;;;;;;10349418;28;20521;-84
2023/09/26 07:06:19;;;;;;;4.30;2.90;;;;;;;;;;10448708;28;20048;-81
2023/09/26 07:11:22;;;;;;;4.53;3.42;;;;;;;;;;10459201;28;20036;-83
2023/09/26 07:16:24;;;;;;;7.20;5.65;;;;;;;;;;10488278;28;20067;-83
2023/09/26 07:21:25;;;;;;;4.10;2.80;;;;;;;;;;10476216;28;20056;-83
2023/09/26 07:26:40;;;;;;;6.07;3.88;;;;;;;;;;10464290;28;20508;-84
2023/09/26 07:32:07;;;;;;;5.60;4.03;;;;;;;;;;10462811;28;20041;-84
2023/09/26 07:37:10;;;;;;;4.30;3.20;;;;;;;;;;10460936;28;20422;-83
2023/09/26 07:42:12;;;;;;;8.35;4.80;;;;;;;;;;10489953;28;20021;-83
2023/09/26 07:47:28;;;;;;;5.97;4.35;;;;;;;;;;10465234;28;20481;-83
2023/09/26 07:52:30;;;;;;;7.65;4.45;;;;;;;;;;10463189;28;20125;-83
2023/09/26 07:57:37;;;;;;;5.40;4.38;;;;;;;;;;10465900;28;20176;-83
2023/09/26 08:03:08;;;;;;;4.90;3.42;;;;;;;;;;10478921;28;20036;-83
2023/09/26 08:08:09;;;;;;;3.92;3.00;;;;;;;;;;10446553;28;20446;-83
2023/09/26 08:13:11;;;;;;;3.90;2.88;;;;;;;;;;10463508;28;20043;-84
2023/09/26 08:18:18;;;;;;;8.82;6.25;;;;;;;;;;10457433;28;20032;-83
2023/09/26 08:23:19;;;;;;;6.63;3.88;;;;;;;;;;10453568;28;20113;-84
2023/09/26 08:28:20;;;;;;;6.32;3.70;;;;;;;;;;10455680;28;20124;-83
2023/09/26 08:33:22;;;;;;;4.78;3.10;;;;;;;;;;10474537;28;20041;-84
2023/09/26 08:38:23;;;;;;;5.45;3.60;;;;;;;;;;10454923;28;20067;-83
2023/09/26 08:43:27;;;;;;;6.25;3.30;;;;;;;;;;10451974;28;20108;-87
2023/09/26 08:48:30;;;;;;;5.43;3.00;;;;;;;;;;10456873;28;20065;-84
2023/09/26 08:53:31;;;;;;;9.73;4.82;;;;;;;;;;10456603;28;20139;-85
2023/09/26 08:58:32;;;;;;;7.32;3.20;;;;;;;;;;10464418;28;20036;-84
2023/09/26 09:03:54;;;;;;;6.03;4.15;;;;;;;;;;10478012;28;20025;-85
2023/09/26 09:09:09;;;;;;;6.47;3.40;;;;;;;;;;10457919;28;20033;-85
2023/09/26 09:14:17;;;;;;;6.78;3.17;;;;;;;;;;10457644;28;20041;-83
2023/09/26 09:19:18;;;;;;;4.68;3.42;;;;;;;;;;10455153;28;20029;-83
2023/09/26 09:24:37;;;;;;;7.63;3.58;;;;;;;;;;10452735;28;20064;-83
2023/09/26 09:29:40;;;;;;;7.55;3.55;;;;;;;;;;10471027;28;20040;-84
2023/09/26 09:34:41;;;;;;;6.13;3.75;;;;;;;;;;10457371;28;20061;-84
2023/09/26 09:39:43;;;;;;;11.45;8.27;;;;;;;;;;10458999;28;20044;-84
2023/09/26 09:44:44;;;;;;;15.05;13.55;;;;;;;;;;10461689;28;20071;-84
2023/09/26 09:49:47;;;;;;;6.85;4.60;;;;;;;;;;10451736;28;20080;-84
2023/09/26 09:54:51;;;;;;;5.07;3.70;;;;;;;;;;10452959;28;20095;-84
2023/09/26 09:59:53;;;;;;;7.25;3.40;;;;;;;;;;10454468;28;20021;-85
2023/09/26 10:04:55;;;;;;;5.60;3.97;;;;;;;;;;10458709;28;20037;-84
2023/09/26 10:09:57;;;;;;;5.63;4.07;;;;;;;;;;10455174;28;20044;-83
2023/09/26 10:14:58;;;;;;;3.58;2.50;;;;;;;;;;10461932;28;20068;-84
2023/09/26 10:19:59;;;;;;;4.60;3.38;;;;;;;;;;10453093;28;20068;-82
2023/09/26 10:25:02;;;;;;;4.93;3.38;;;;;;;;;;10463510;28;20021;-82
2023/09/26 10:30:03;;;;;;;4.93;2.60;;;;;;;;;;10478917;28;20136;-83
2023/09/26 10:35:13;;;;;;;2.78;2.05;;;;;;;;;;10461026;28;20096;-82
2023/09/26 10:40:14;;;;;;;;;;;;;;;;;;10461541;28;20040;-83
2023/09/26 10:45:16;;;;;;;3.63;2.15;;;;;;;;;;10468377;28;20317;-82
2023/09/26 10:50:17;;;;;;;2.83;2.30;;;;;;;;;;10461437;28;20047;-82
2023/09/26 10:55:19;;;;;;;4.22;2.45;;;;;;;;;;10468208;28;20421;-84
2023/09/26 11:00:20;;;;;;;2.15;1.90;;;;;;;;;;10462432;28;20086;-84
2023/09/26 11:05:21;;;;;;;3.88;2.50;;;;;;;;;;10462264;28;20064;-83
2023/09/26 11:10:23;;;;;;;4.05;2.15;;;;;;;;;;10481136;28;20107;-83
2023/09/26 11:15:27;;;;;;;4.53;2.10;;;;;;;;;;10463633;28;20140;-83
2023/09/26 11:20:47;;;;;;;3.30;2.30;;;;;;;;;;10467244;28;20056;-84
2023/09/26 11:25:52;;;;;;;3.38;2.70;;;;;;;;;;10458750;28;20051;-83
2023/09/26 11:30:53;;;;;;;4.15;2.67;;;;;;;;;;10467209;28;20035;-83
2023/09/26 11:35:54;;;;;;;4.05;2.22;;;;;;;;;;10461142;28;20060;-85
2023/09/26 11:40:55;;;;;;;3.28;2.53;;;;;;;;;;10461355;28;20093;-84
2023/09/26 11:46:02;;;;;;;2.60;2.00;;;;;;;;;;10460552;28;20060;-84
2023/09/26 11:51:03;;;;;;;2.90;2.08;;;;;;;;;;10458822;28;20056;-84
2023/09/26 11:56:08;;;;;;;2.88;2.03;;;;;;;;;;10479587;28;20035;-84
2023/09/26 12:01:09;;;;;;;2.53;1.85;;;;;;;;;;10462859;28;20033;-81
2023/09/26 12:06:10;;;;;;;3.50;2.40;;;;;;;;;;10468682;28;20400;-81
2023/09/26 12:11:12;;;;;;;4.95;3.30;;;;;;;;;;10449950;28;20040;-80
2023/09/26 12:16:13;;;;;;;2.83;2.00;;;;;;;;;;10450520;28;20116;-80
2023/09/26 12:21:14;;;;;;;3.10;1.75;;;;;;;;;;10468391;28;20029;-80
2023/09/26 12:26:15;;;;;;;3.05;2.03;;;;;;;;;;10467717;28;20037;-81
2023/09/26 12:31:16;;;;;;;11.80;3.08;;;;;;;;;;10451774;28;20123;-80
2023/09/26 12:36:17;;;;;;;3.95;2.10;;;;;;;;;;10451075;28;20044;-80
2023/09/26 12:41:19;;;;;;;7.25;3.88;;;;;;;;;;10450613;28;20029;-79
2023/09/26 12:46:20;;;;;;;3.83;3.35;;;;;;;;;;10458007;28;20063;-80
2023/09/26 12:51:21;;;;;;;2.90;1.98;;;;;;;;;;10448871;28;20044;-80
2023/09/26 12:56:22;;;;;;;4.45;2.10;;;;;;;;;;10448172;28;20416;-80
2023/09/26 13:01:23;;;;;;;3.33;2.15;;;;;;;;;;10447330;28;20501;-80
2023/09/26 13:06:24;;;;;;;2.72;1.88;;;;;;;;;;10447171;28;20029;-79
2023/09/26 13:11:25;;;;;;;3.00;2.55;;;;;;;;;;10445403;28;20128;-79
2023/09/26 13:16:26;;;;;;;3.30;1.95;;;;;;;;;;10442373;28;20436;-79
2023/09/26 13:21:27;;;;;;;3.00;2.40;;;;;;;;;;10443661;28;20029;-78
2023/09/26 13:26:28;;;;;;;2.58;1.98;;;;;;;;;;10442152;28;20039;-78
2023/09/26 13:36:56;;;;;;;2.90;2.22;;;;;;;;;;10460578;28;20055;-78
2023/09/26 13:41:57;;;;;;;5.57;2.70;;;;;;;;;;10442394;28;20098;-80
2023/09/26 13:46:58;;;;;;;5.18;2.95;;;;;;;;;;10445738;28;20045;-79
2023/09/26 13:52:00;;;;;;;3.58;2.15;;;;;;;;;;10445943;28;20451;-80
2023/09/26 13:57:01;;;;;;;2.78;2.03;;;;;;;;;;10446201;28;20099;-81
2023/09/26 14:02:02;;;;;;;3.75;2.10;;;;;;;;;;10449454;28;20132;-79
2023/09/26 14:07:04;;;;;;;2.38;1.77;;;;;;;;;;10448908;28;20032;-80
2023/09/26 14:12:06;;;;;;;3.45;1.80;;;;;;;;;;10454212;28;20079;-81
2023/09/26 14:17:07;;;;;;;4.45;2.47;;;;;;;;;;10453399;28;20124;-80
2023/09/26 14:22:09;;;;;;;3.80;2.22;;;;;;;;;;10453814;28;20634;-84
2023/09/26 14:27:10;;;;;;;3.50;3.00;;;;;;;;;;10456818;28;20037;-85
2023/09/26 14:32:12;;;;;;;3.75;2.50;;;;;;;;;;10458006;28;20048;-86
2023/09/26 14:37:14;;;;;;;4.85;1.90;;;;;;;;;;10458520;28;20107;-84
2023/09/26 14:42:16;;;;;;;4.07;2.33;;;;;;;;;;10458094;28;20025;-86
2023/09/26 14:47:17;;;;;;;3.80;2.42;;;;;;;;;;10455992;28;20045;-83
2023/09/26 14:52:22;;;;;;;5.25;2.65;;;;;;;;;;10474486;28;20041;-85
2023/09/26 14:57:41;;;;;;;5.03;3.88;;;;;;;;;;10458985;28;20118;-86
2023/09/26 15:02:47;;;;;;;4.88;3.20;;;;;;;;;;10455767;28;20033;-87
2023/09/26 15:07:48;;;;;;;7.78;5.30;;;;;;;;;;10454259;28;20025;-85
2023/09/26 15:12:49;;;;;;;4.50;3.47;;;;;;;;;;10456042;28;20158;-84
2023/09/26 15:17:51;;;;;;;5.65;2.63;;;;;;;;;;10458600;28;20043;-85
2023/09/26 15:22:52;;;;;;;3.00;2.17;;;;;;;;;;10454975;28;20029;-85
2023/09/26 15:27:53;;;;;;;4.88;2.40;;;;;;;;;;10456544;28;20079;-85
2023/09/26 15:32:54;;;;;;;6.25;2.92;;;;;;;;;;10454758;28;20041;-85
2023/09/26 15:38:11;;;;;;;4.15;2.90;;;;;;;;;;10455983;28;20131;-84
2023/09/26 15:43:15;;;;;;;4.18;2.10;;;;;;;;;;10457523;28;20116;-84
2023/09/26 15:48:16;;;;;;;5.75;4.05;;;;;;;;;;10456315;28;20123;-84
2023/09/26 15:53:21;;;;;;;6.00;3.15;;;;;;;;;;10454747;28;20122;-84
2023/09/26 15:58:25;;;;;;;5.32;4.03;;;;;;;;;;10472930;28;20047;-81
2023/09/26 16:03:27;;;;;;;4.65;3.13;;;;;;;;;;10478872;28;20409;-81
2023/09/26 16:08:28;;;;;;;4.90;2.72;;;;;;;;;;10466989;28;20135;-82
2023/09/26 16:13:32;;;;;;;3.20;2.50;;;;;;;;;;10465235;28;20049;-81
2023/09/26 16:18:33;;;;;;;4.28;3.05;;;;;;;;;;10500170;28;20025;-82
2023/09/26 16:23:34;;;;;;;5.85;3.00;;;;;;;;;;10464031;28;20033;-83
2023/09/26 16:28:36;;;;;;;4.22;3.00;;;;;;;;;;10471574;28;20060;-83
2023/09/26 16:33:37;;;;;;;4.22;2.97;;;;;;;;;;10454446;28;20028;-84
2023/09/26 16:38:38;;;;;;;4.15;3.00;;;;;;;;;;10457105;28;20059;-83
2023/09/26 16:43:39;;;;;;;3.20;2.72;;;;;;;;;;10478348;28;20071;-82
2023/09/26 16:48:40;;;;;;;4.88;2.58;;;;;;;;;;10453954;28;20084;-82
2023/09/26 16:53:42;;;;;;;5.03;2.78;;;;;;;;;;10449955;28;20113;-82
2023/09/26 16:58:45;;;;;;;3.90;3.13;;;;;;;;;;10431972;28;20037;-82
2023/09/26 17:03:48;;;;;;;3.45;2.80;;;;;;;;;;10464076;28;20427;-81
2023/09/26 17:08:51;;;;;;;3.53;3.00;;;;;;;;;;10430625;28;20382;-81
2023/09/26 17:13:52;;;;;;;4.28;3.00;;;;;;;;;;10447365;28;20424;-82
2023/09/26 17:18:53;;;;;;;4.90;3.17;;;;;;;;;;10446892;28;20041;-82
2023/09/26 17:23:55;;;;;;;5.85;4.68;;;;;;;;;;10446603;28;20063;-82
2023/09/26 17:28:56;;;;;;;5.32;3.65;;;;;;;;;;10450880;28;20036;-82
2023/09/26 17:33:57;;;;;;;4.00;3.00;;;;;;;;;;10479085;28;20040;-82
2023/09/26 17:38:58;;;;;;;5.13;3.10;;;;;;;;;;10454188;28;20044;-81
2023/09/26 17:43:59;;;;;;;6.35;3.00;;;;;;;;;;10442235;28;20123;-81
2023/09/26 17:49:00;;;;;;;5.78;2.50;;;;;;;;;;10442357;28;20037;-82
2023/09/26 17:54:01;;;;;;;3.97;3.30;;;;;;;;;;10441556;28;20033;-82
2023/09/26 17:59:02;;;;;;;4.35;2.95;;;;;;;;;;10441793;28;20123;-82
2023/09/26 18:04:13;;;;;;;4.40;3.05;;;;;;;;;;10476692;23;20057;-87
2023/09/26 18:09:24;;;;;;;5.43;3.33;;;;;;;;;;10417859;28;20042;-87
2023/09/26 18:14:29;;;;;;;6.00;4.07;;;;;;;;;;10360305;28;20042;-87
2023/09/26 18:19:30;;;;;;;7.32;4.47;;;;;;;;;;10346151;28;20121;-87
2023/09/26 18:24:35;;;;;;;8.68;4.57;;;;;;;;;;10366780;28;20029;-88
